createdAt,value
2022-07-26T00:01:52.592Z,19.48
2022-07-26T00:04:23.373Z,19.53
2022-07-26T00:06:53.951Z,19.46
2022-07-26T00:09:24.517Z,19.36
2022-07-26T00:11:55.043Z,19.39
2022-07-26T00:14:25.594Z,19.39
2022-07-26T00:16:56.164Z,19.40
2022-07-26T00:19:26.786Z,19.44
2022-07-26T00:22:14.992Z,19.41
2022-07-26T00:24:45.525Z,19.44
2022-07-26T00:27:16.003Z,19.50
2022-07-26T00:29:46.552Z,19.55
2022-07-26T00:32:17.164Z,19.55
2022-07-26T00:34:47.717Z,19.56
2022-07-26T00:37:20.632Z,19.68
2022-07-26T00:39:50.783Z,19.62
2022-07-26T00:42:21.360Z,19.65
2022-07-26T00:44:51.960Z,19.72
2022-07-26T00:47:22.439Z,19.82
2022-07-26T00:49:53.119Z,19.75
2022-07-26T00:52:23.611Z,19.78
2022-07-26T00:54:56.272Z,19.65
2022-07-26T00:57:26.826Z,19.70
2022-07-26T00:59:57.409Z,19.78
2022-07-26T01:02:28.536Z,19.92
2022-07-26T01:04:59.118Z,19.76
2022-07-26T01:07:30.792Z,19.74
2022-07-26T01:10:02.284Z,19.91
2022-07-26T01:12:33.051Z,19.76
2022-07-26T01:15:03.552Z,19.68
2022-07-26T01:17:34.338Z,19.80
2022-07-26T01:20:08.290Z,19.74
2022-07-26T01:22:40.409Z,19.82
2022-07-26T01:25:11.984Z,19.83
2022-07-26T01:27:43.564Z,19.84
2022-07-26T01:30:16.138Z,19.78
2022-07-26T01:32:46.517Z,19.80
2022-07-26T01:35:17.024Z,19.84
2022-07-26T01:37:47.530Z,19.82
2022-07-26T01:40:18.073Z,19.71
2022-07-26T01:42:48.639Z,19.66
2022-07-26T01:45:19.463Z,19.54
2022-07-26T01:47:51.192Z,19.55
2022-07-26T01:50:21.959Z,19.54
2022-07-26T01:52:52.466Z,19.82
2022-07-26T01:55:23.117Z,19.76
2022-07-26T01:57:53.634Z,19.95
2022-07-26T02:00:24.286Z,19.90
2022-07-26T02:02:55.048Z,20.01
2022-07-26T02:05:25.636Z,20.08
2022-07-26T02:07:56.166Z,20.03
2022-07-26T02:10:28.322Z,20.05
2022-07-26T02:12:58.869Z,20.12
2022-07-26T02:15:29.566Z,20.15
2022-07-26T02:18:00.087Z,20.10
2022-07-26T02:20:32.176Z,20.12
2022-07-26T02:23:03.319Z,20.02
2022-07-26T02:25:33.866Z,20.04
2022-07-26T02:28:04.426Z,19.80
2022-07-26T02:30:35.144Z,19.71
2022-07-26T02:33:06.069Z,19.64
2022-07-26T02:35:37.223Z,19.56
2022-07-26T02:38:11.017Z,19.54
2022-07-26T02:40:42.455Z,19.57
2022-07-26T02:43:12.950Z,19.54
2022-07-26T02:45:43.395Z,19.42
2022-07-26T02:48:14.207Z,19.31
2022-07-26T02:50:44.634Z,19.40
2022-07-26T02:53:15.238Z,19.46
2022-07-26T02:55:45.642Z,19.47
2022-07-26T02:58:16.218Z,19.46
2022-07-26T03:00:46.589Z,19.37
2022-07-26T03:03:17.100Z,19.25
2022-07-26T03:05:47.653Z,19.24
2022-07-26T03:08:18.181Z,19.33
2022-07-26T03:10:48.718Z,19.41
2022-07-26T03:13:20.658Z,19.39
2022-07-26T03:15:51.210Z,19.49
2022-07-26T03:18:21.670Z,19.58
2022-07-26T03:20:52.311Z,19.56
2022-07-26T03:23:22.743Z,19.47
2022-07-26T03:25:53.703Z,19.53
2022-07-26T03:28:24.243Z,19.48
2022-07-26T03:30:54.796Z,19.56
2022-07-26T03:33:25.867Z,19.57
2022-07-26T03:35:56.314Z,19.69
2022-07-26T03:38:26.819Z,19.66
2022-07-26T03:40:57.829Z,19.71
2022-07-26T03:43:28.366Z,19.73
2022-07-26T03:45:58.889Z,19.64
2022-07-26T03:48:29.504Z,19.65
2022-07-26T03:51:00.315Z,19.66
2022-07-26T03:53:30.807Z,19.76
2022-07-26T03:56:19.252Z,19.72
2022-07-26T03:58:50.171Z,19.70
2022-07-26T04:01:20.771Z,19.83
2022-07-26T04:03:51.249Z,19.71
2022-07-26T04:06:23.128Z,19.77
2022-07-26T04:08:54.071Z,19.84
2022-07-26T04:11:26.529Z,19.84
2022-07-26T04:13:57.238Z,19.82
2022-07-26T04:16:28.072Z,19.75
2022-07-26T04:18:58.570Z,19.84
2022-07-26T04:21:29.076Z,19.98
2022-07-26T04:24:01.170Z,19.94
2022-07-26T04:26:32.667Z,20.02
2022-07-26T04:29:03.072Z,19.93
2022-07-26T04:31:36.264Z,20.02
2022-07-26T04:34:07.453Z,20.13
2022-07-26T04:36:38.942Z,20.24
2022-07-26T04:39:09.434Z,20.30
2022-07-26T04:41:39.887Z,20.23
2022-07-26T04:44:10.929Z,20.32
2022-07-26T04:46:44.981Z,20.33
2022-07-26T04:49:13.912Z,20.41
2022-07-26T04:51:44.450Z,20.58
2022-07-26T04:54:16.599Z,20.78
2022-07-26T04:56:47.616Z,20.87
2022-07-26T04:59:21.653Z,21.02
2022-07-26T05:01:50.579Z,21.16
2022-07-26T05:04:21.141Z,21.46
2022-07-26T05:06:51.509Z,21.96
2022-07-26T05:09:22.110Z,22.68
2022-07-26T05:11:52.525Z,23.24
2022-07-26T05:14:23.388Z,23.23
2022-07-26T05:16:53.955Z,23.57
2022-07-26T05:19:24.385Z,23.46
2022-07-26T05:21:54.818Z,23.64
2022-07-26T05:24:25.292Z,23.78
2022-07-26T05:26:58.646Z,24.42
2022-07-26T05:29:27.822Z,25.42
2022-07-26T05:31:58.310Z,26.37
2022-07-26T05:34:28.893Z,27.27
2022-07-26T05:36:59.751Z,27.94
2022-07-26T05:39:30.152Z,29.10
2022-07-26T05:42:00.605Z,30.08
2022-07-26T05:44:31.122Z,30.19
2022-07-26T05:47:01.588Z,30.68
2022-07-26T05:49:40.138Z,30.97
2022-07-26T05:52:06.030Z,31.60
2022-07-26T05:54:37.806Z,31.65
2022-07-26T05:57:08.277Z,30.67
2022-07-26T05:59:38.750Z,30.03
2022-07-26T06:02:11.313Z,30.64
2022-07-26T06:04:42.162Z,31.46
2022-07-26T06:07:13.652Z,32.13
2022-07-26T06:09:45.022Z,31.54
2022-07-26T06:12:15.590Z,32.86
2022-07-26T06:14:46.397Z,33.96
2022-07-26T06:17:19.878Z,34.89
2022-07-26T06:19:51.126Z,35.93
2022-07-26T06:22:23.202Z,36.56
2022-07-26T06:24:53.953Z,34.91
2022-07-26T06:27:24.429Z,35.41
2022-07-26T06:29:55.005Z,34.03
2022-07-26T06:32:25.672Z,33.20
2022-07-26T06:34:56.325Z,32.62
2022-07-26T06:37:26.825Z,30.95
2022-07-26T06:39:57.335Z,31.13
2022-07-26T06:42:27.871Z,30.74
2022-07-26T06:44:58.344Z,28.50
2022-07-26T06:47:29.035Z,28.26
2022-07-26T06:49:59.492Z,29.55
2022-07-26T06:52:30.096Z,30.44
2022-07-26T06:55:03.130Z,29.44
2022-07-26T06:57:33.567Z,29.34
2022-07-26T07:00:08.224Z,28.09
2022-07-26T07:02:38.801Z,26.74
2022-07-26T07:05:09.575Z,25.24
2022-07-26T07:07:42.720Z,24.41
2022-07-26T07:10:12.876Z,23.83
2022-07-26T07:12:44.910Z,22.96
2022-07-26T07:15:15.413Z,22.98
2022-07-26T07:17:48.086Z,22.88
2022-07-26T07:20:20.569Z,22.97
2022-07-26T07:22:52.633Z,23.42
2022-07-26T07:25:30.767Z,23.33
2022-07-26T07:27:55.365Z,23.16
2022-07-26T07:30:26.359Z,23.11
2022-07-26T07:32:59.946Z,23.39
2022-07-26T07:35:32.002Z,23.87
2022-07-26T07:38:02.440Z,23.99
2022-07-26T07:40:33.068Z,24.31
2022-07-26T07:43:04.283Z,24.10
2022-07-26T07:45:35.205Z,24.19
2022-07-26T07:48:07.419Z,24.26
2022-07-26T07:50:37.829Z,24.10
2022-07-26T07:53:08.359Z,24.20
2022-07-26T07:55:41.594Z,24.68
2022-07-26T07:58:10.861Z,24.92
2022-07-26T08:00:41.382Z,25.29
2022-07-26T08:03:11.896Z,25.30
2022-07-26T08:05:42.429Z,25.44
2022-07-26T08:08:12.806Z,25.48
2022-07-26T08:10:51.554Z,25.60
2022-07-26T08:13:16.938Z,25.62
2022-07-26T08:15:49.503Z,25.49
2022-07-26T08:18:22.320Z,25.12
2022-07-26T08:20:54.427Z,24.53
2022-07-26T08:23:25.304Z,24.60
2022-07-26T08:26:00.724Z,24.44
2022-07-26T08:28:46.666Z,24.20
2022-07-26T08:31:02.499Z,24.01
2022-07-26T08:33:33.656Z,23.86
2022-07-26T08:36:04.177Z,23.76
2022-07-26T08:38:34.823Z,23.64
2022-07-26T08:41:05.334Z,23.72
2022-07-26T08:43:51.086Z,23.74
2022-07-26T08:46:08.098Z,23.60
2022-07-26T08:48:39.437Z,23.16
2022-07-26T08:51:11.797Z,23.18
2022-07-26T08:53:42.329Z,22.90
2022-07-26T08:56:13.947Z,22.64
2022-07-26T08:58:45.753Z,22.83
2022-07-26T09:01:16.350Z,23.03
2022-07-26T09:03:47.388Z,23.44
2022-07-26T09:06:22.799Z,23.34
2022-07-26T09:08:55.081Z,23.35
2022-07-26T09:11:28.588Z,23.37
2022-07-26T09:14:01.595Z,23.81
2022-07-26T09:16:37.282Z,24.21
2022-07-26T09:19:21.750Z,24.07
2022-07-26T09:21:52.924Z,24.14
2022-07-26T09:24:35.126Z,23.84
2022-07-26T09:27:07.834Z,23.78
2022-07-26T09:29:51.492Z,23.81
2022-07-26T09:32:24.740Z,23.52
2022-07-26T09:34:58.973Z,23.33
2022-07-26T09:37:37.625Z,23.60
2022-07-26T09:40:16.441Z,23.43
2022-07-26T09:42:59.119Z,23.73
2022-07-26T09:45:32.795Z,24.08
2022-07-26T09:48:04.976Z,24.34
2022-07-26T09:50:35.482Z,24.66
2022-07-26T09:53:14.031Z,24.71
2022-07-26T09:55:50.622Z,24.58
2022-07-26T09:58:21.123Z,24.77
2022-07-26T10:00:52.121Z,24.79
2022-07-26T10:03:22.850Z,24.57
2022-07-26T10:05:53.875Z,24.79
2022-07-26T10:08:25.344Z,24.93
2022-07-26T10:11:05.289Z,25.04
2022-07-26T10:13:35.847Z,25.20
2022-07-26T10:16:07.923Z,25.40
2022-07-26T10:18:43.051Z,25.58
2022-07-26T10:21:21.051Z,25.96
2022-07-26T10:23:58.190Z,26.01
2022-07-26T10:26:37.677Z,25.02
2022-07-26T10:29:26.454Z,24.93
2022-07-26T10:32:03.329Z,25.30
2022-07-26T10:34:37.556Z,25.25
2022-07-26T10:37:10.989Z,25.43
2022-07-26T10:39:41.518Z,25.44
2022-07-26T10:42:12.293Z,25.59
2022-07-26T10:44:45.827Z,25.23
2022-07-26T10:47:18.700Z,25.18
2022-07-26T10:49:57.643Z,25.10
2022-07-26T10:52:29.938Z,24.66
2022-07-26T10:55:07.872Z,24.80
2022-07-26T10:57:43.204Z,24.92
2022-07-26T11:00:22.608Z,24.93
2022-07-26T11:03:00.545Z,25.14
2022-07-26T11:05:34.728Z,25.19
2022-07-26T11:08:10.298Z,25.32
2022-07-26T11:10:43.406Z,25.11
2022-07-26T11:13:19.786Z,25.20
2022-07-26T11:15:54.220Z,25.48
2022-07-26T11:18:31.434Z,25.69
2022-07-26T11:21:16.761Z,26.50
2022-07-26T11:23:50.660Z,26.62
2022-07-26T11:26:23.537Z,27.35
2022-07-26T11:29:06.254Z,27.15
2022-07-26T11:31:50.329Z,27.04
2022-07-26T11:34:27.964Z,26.42
2022-07-26T11:37:02.593Z,26.19
2022-07-26T11:39:35.295Z,26.56
2022-07-26T11:42:08.406Z,26.52
2022-07-26T11:44:40.895Z,26.04
2022-07-26T11:47:16.536Z,25.72
2022-07-26T11:50:00.121Z,25.88
2022-07-26T11:52:25.466Z,25.52
2022-07-26T11:54:54.761Z,25.86
2022-07-26T11:57:33.034Z,26.15
2022-07-26T12:00:06.579Z,25.87
2022-07-26T12:02:37.026Z,25.52
2022-07-26T12:05:22.101Z,25.18
2022-07-26T12:08:03.550Z,24.88
2022-07-26T12:10:34.988Z,24.44
2022-07-26T12:13:16.141Z,24.26
2022-07-26T12:15:52.664Z,23.92
2022-07-26T12:18:31.613Z,23.60
2022-07-26T12:21:07.556Z,22.75
2022-07-26T12:23:48.956Z,22.26
2022-07-26T12:26:24.819Z,21.72
2022-07-26T12:28:56.673Z,21.52
2022-07-26T12:31:29.897Z,21.24
2022-07-26T12:34:00.868Z,20.40
2022-07-26T12:36:34.226Z,19.72
2022-07-26T12:39:06.009Z,19.39
2022-07-26T12:41:38.470Z,18.94
2022-07-26T12:44:11.586Z,19.16
2022-07-26T12:46:44.475Z,19.04
2022-07-26T12:49:15.079Z,19.00
2022-07-26T12:51:45.497Z,19.22
2022-07-26T12:54:16.066Z,19.45
2022-07-26T12:56:46.582Z,19.67
2022-07-26T12:59:18.701Z,19.69
2022-07-26T13:01:49.181Z,19.56
2022-07-26T13:04:20.071Z,19.68
2022-07-26T13:06:50.629Z,19.51
2022-07-26T13:09:21.181Z,19.61
2022-07-26T13:11:51.822Z,19.62
2022-07-26T13:14:22.355Z,19.90
2022-07-26T13:16:53.248Z,19.94
2022-07-26T13:19:24.051Z,20.14
2022-07-26T13:21:54.545Z,20.42
2022-07-26T13:24:26.316Z,20.36
2022-07-26T13:26:58.905Z,20.22
2022-07-26T13:29:30.937Z,20.26
2022-07-26T13:32:01.552Z,20.63
2022-07-26T13:34:35.066Z,20.88
2022-07-26T13:37:08.224Z,20.90
2022-07-26T13:39:36.795Z,21.08
2022-07-26T13:42:07.372Z,21.02
2022-07-26T13:44:37.830Z,20.87
2022-07-26T13:47:08.341Z,20.82
2022-07-26T13:49:38.939Z,20.88
2022-07-26T13:52:13.628Z,21.00
2022-07-26T13:54:41.645Z,21.12
2022-07-26T13:57:12.078Z,21.08
2022-07-26T13:59:42.457Z,21.66
2022-07-26T14:02:13.048Z,21.91
2022-07-26T14:04:43.719Z,22.00
2022-07-26T14:07:14.285Z,22.08
2022-07-26T14:09:44.642Z,22.12
2022-07-26T14:12:15.952Z,22.44
2022-07-26T14:14:46.554Z,22.67
2022-07-26T14:17:17.047Z,22.81
2022-07-26T14:19:47.484Z,22.68
2022-07-26T14:22:18.072Z,22.31
2022-07-26T14:24:48.654Z,22.73
2022-07-26T14:27:19.187Z,22.62
2022-07-26T14:29:49.954Z,22.77
2022-07-26T14:32:22.123Z,22.93
2022-07-26T14:34:52.946Z,22.00
2022-07-26T14:37:42.198Z,21.67
2022-07-26T14:39:55.982Z,21.86
2022-07-26T14:42:26.509Z,22.12
2022-07-26T14:44:56.955Z,22.62
2022-07-26T14:47:27.386Z,22.88
2022-07-26T14:50:00.576Z,22.93
2022-07-26T14:52:30.011Z,22.93
2022-07-26T14:55:00.492Z,22.94
2022-07-26T14:57:31.292Z,22.87
2022-07-26T15:00:01.911Z,22.55
2022-07-26T15:02:32.655Z,22.86
2022-07-26T15:05:03.215Z,22.98
2022-07-26T15:07:34.160Z,23.08
2022-07-26T15:10:06.674Z,23.20
2022-07-26T15:12:38.040Z,23.64
2022-07-26T15:15:09.985Z,23.35
2022-07-26T15:17:40.447Z,23.46
2022-07-26T15:20:11.060Z,23.48
2022-07-26T15:22:41.670Z,23.38
2022-07-26T15:25:12.125Z,23.48
2022-07-26T15:27:43.765Z,23.09
2022-07-26T15:30:15.933Z,23.04
2022-07-26T15:32:46.942Z,23.06
2022-07-26T15:35:18.221Z,22.86
2022-07-26T15:37:48.570Z,22.86
2022-07-26T15:40:20.758Z,22.99
2022-07-26T15:42:52.175Z,22.99
2022-07-26T15:45:24.904Z,22.71
2022-07-26T15:48:04.575Z,22.74
2022-07-26T15:50:29.934Z,22.62
2022-07-26T15:53:00.439Z,22.58
2022-07-26T15:55:30.910Z,22.51
2022-07-26T15:58:01.437Z,22.37
2022-07-26T16:00:32.168Z,22.26
2022-07-26T16:03:02.651Z,22.40
2022-07-26T16:05:34.684Z,22.30
2022-07-26T16:08:05.347Z,22.17
2022-07-26T16:10:35.921Z,22.66
2022-07-26T16:13:06.689Z,22.93
2022-07-26T16:15:37.453Z,23.22
2022-07-26T16:18:08.102Z,23.01
2022-07-26T16:20:38.529Z,22.90
2022-07-26T16:23:09.745Z,22.82
2022-07-26T16:25:40.202Z,22.63
2022-07-26T16:28:10.641Z,22.48
2022-07-26T16:30:41.981Z,22.38
2022-07-26T16:33:12.719Z,22.54
2022-07-26T16:35:43.457Z,22.45
2022-07-26T16:38:13.914Z,22.21
2022-07-26T16:40:44.660Z,22.36
2022-07-26T16:43:15.287Z,22.22
2022-07-26T16:45:45.750Z,22.41
2022-07-26T16:48:17.041Z,22.48
2022-07-26T16:50:47.610Z,22.29
2022-07-26T16:53:18.097Z,22.50
2022-07-26T16:55:50.254Z,22.55
2022-07-26T16:58:21.416Z,22.70
2022-07-26T17:00:51.937Z,22.97
2022-07-26T17:03:25.974Z,23.29
2022-07-26T17:05:56.460Z,23.85
2022-07-26T17:08:26.929Z,23.92
2022-07-26T17:10:58.093Z,23.84
2022-07-26T17:13:28.475Z,23.87
2022-07-26T17:16:00.379Z,24.36
2022-07-26T17:18:30.866Z,24.44
2022-07-26T17:21:01.937Z,24.27
2022-07-26T17:23:32.564Z,23.93
2022-07-26T17:26:03.923Z,23.48
2022-07-26T17:28:34.436Z,22.98
2022-07-26T17:31:05.134Z,22.72
2022-07-26T17:33:35.558Z,22.66
2022-07-26T17:36:23.516Z,22.38
2022-07-26T17:38:54.828Z,22.21
2022-07-26T17:41:32.650Z,22.16
2022-07-26T17:43:58.901Z,22.26
2022-07-26T17:46:31.404Z,22.80
2022-07-26T17:49:02.391Z,22.72
2022-07-26T17:51:33.324Z,22.66
2022-07-26T17:54:03.993Z,22.51
2022-07-26T17:56:36.806Z,22.32
2022-07-26T17:59:08.599Z,22.08
2022-07-26T18:01:39.341Z,21.45
2022-07-26T18:04:11.411Z,21.38
2022-07-26T18:06:42.421Z,21.26
2022-07-26T18:09:14.150Z,21.32
2022-07-26T18:11:44.893Z,20.91
2022-07-26T18:14:15.340Z,20.94
2022-07-26T18:16:47.579Z,20.87
2022-07-26T18:19:20.290Z,20.86
2022-07-26T18:21:51.527Z,20.90
2022-07-26T18:24:23.590Z,20.74
2022-07-26T18:26:54.131Z,20.56
2022-07-26T18:29:24.604Z,20.47
2022-07-26T18:31:55.095Z,20.48
2022-07-26T18:34:25.654Z,20.58
2022-07-26T18:36:56.176Z,20.81
2022-07-26T18:39:32.849Z,20.44
2022-07-26T18:41:58.792Z,20.62
2022-07-26T18:44:29.515Z,20.33
2022-07-26T18:47:00.531Z,20.44
2022-07-26T18:49:33.193Z,20.23
2022-07-26T18:52:08.323Z,20.03
2022-07-26T18:54:37.732Z,20.02
2022-07-26T18:57:08.163Z,20.00
2022-07-26T18:59:38.751Z,19.97
2022-07-26T19:02:10.240Z,19.88
2022-07-26T19:04:40.736Z,19.88
2022-07-26T19:07:11.106Z,19.78
2022-07-26T19:09:41.530Z,19.76
2022-07-26T19:12:12.056Z,19.77
2022-07-26T19:14:42.594Z,19.55
2022-07-26T19:17:13.023Z,19.57
2022-07-26T19:19:43.681Z,19.60
2022-07-26T19:22:14.731Z,19.32
2022-07-26T19:24:45.122Z,19.36
2022-07-26T19:27:15.557Z,19.32
2022-07-26T19:29:46.235Z,19.15
2022-07-26T19:32:16.928Z,19.10
2022-07-26T19:34:47.440Z,19.09
2022-07-26T19:37:20.380Z,19.08
2022-07-26T19:39:52.547Z,18.93
2022-07-26T19:42:23.224Z,18.84
2022-07-26T19:44:53.854Z,18.79
2022-07-26T19:47:24.482Z,18.78
2022-07-26T19:49:55.136Z,18.80
2022-07-26T19:52:25.570Z,18.83
2022-07-26T19:54:56.055Z,18.66
2022-07-26T19:57:26.510Z,18.62
2022-07-26T19:59:57.123Z,18.77
2022-07-26T20:02:28.253Z,18.65
2022-07-26T20:04:59.193Z,18.64
2022-07-26T20:07:29.863Z,18.59
2022-07-26T20:10:00.424Z,18.47
2022-07-26T20:12:30.919Z,18.46
2022-07-26T20:15:01.837Z,18.35
2022-07-26T20:17:33.949Z,18.47
2022-07-26T20:20:06.473Z,18.38
2022-07-26T20:22:37.386Z,18.35
2022-07-26T20:25:08.709Z,18.28
2022-07-26T20:27:39.549Z,18.39
2022-07-26T20:30:11.136Z,18.34
2022-07-26T20:32:41.606Z,18.25
2022-07-26T20:35:12.284Z,18.22
2022-07-26T20:37:43.526Z,18.03
2022-07-26T20:40:15.556Z,18.22
2022-07-26T20:42:47.568Z,17.99
2022-07-26T20:45:18.953Z,17.95
2022-07-26T20:47:49.438Z,17.91
2022-07-26T20:50:20.490Z,17.88
2022-07-26T20:52:51.196Z,17.97
2022-07-26T20:55:22.939Z,18.01
2022-07-26T20:57:53.353Z,17.88
2022-07-26T21:00:24.947Z,17.88
2022-07-26T21:02:57.265Z,17.79
2022-07-26T21:05:32.379Z,17.81
2022-07-26T21:08:01.271Z,17.74
2022-07-26T21:10:31.982Z,17.76
2022-07-26T21:13:02.680Z,17.75
2022-07-26T21:15:33.277Z,17.66
2022-07-26T21:18:03.720Z,17.62
2022-07-26T21:20:34.481Z,17.74
2022-07-26T21:23:16.792Z,17.53
2022-07-26T21:25:37.479Z,17.44
2022-07-26T21:28:08.219Z,17.41
2022-07-26T21:30:38.753Z,17.31
2022-07-26T21:33:09.243Z,17.30
2022-07-26T21:35:43.915Z,17.31
2022-07-26T21:38:14.403Z,17.33
2022-07-26T21:40:45.581Z,17.31
2022-07-26T21:43:16.354Z,17.40
2022-07-26T21:45:46.907Z,17.48
2022-07-26T21:48:17.810Z,17.56
2022-07-26T21:50:48.597Z,17.66
2022-07-26T21:53:19.079Z,17.66
2022-07-26T21:55:49.497Z,17.61
2022-07-26T21:58:19.898Z,17.64
2022-07-26T22:00:50.746Z,17.58
2022-07-26T22:03:24.243Z,17.86
2022-07-26T22:05:54.607Z,17.71
2022-07-26T22:08:25.136Z,17.72
2022-07-26T22:10:55.659Z,17.56
2022-07-26T22:13:26.214Z,17.62
2022-07-26T22:15:56.893Z,17.54
2022-07-26T22:18:27.969Z,17.59
2022-07-26T22:21:01.020Z,17.51
2022-07-26T22:23:31.592Z,17.51
2022-07-26T22:26:05.064Z,17.60
2022-07-26T22:28:35.709Z,17.55
2022-07-26T22:31:06.185Z,17.48
2022-07-26T22:33:36.655Z,17.40
2022-07-26T22:36:09.126Z,17.39
2022-07-26T22:38:39.864Z,17.35
2022-07-26T22:41:11.140Z,17.33
2022-07-26T22:43:41.947Z,17.38
2022-07-26T22:46:12.486Z,17.27
2022-07-26T22:48:48.073Z,17.41
2022-07-26T22:51:16.918Z,17.50
2022-07-26T22:53:47.386Z,17.19
2022-07-26T22:56:19.967Z,17.28
2022-07-26T22:58:50.342Z,17.22
2022-07-26T23:01:20.831Z,17.16
2022-07-26T23:03:51.976Z,17.04
2022-07-26T23:06:31.310Z,16.98
2022-07-26T23:08:55.011Z,17.07
2022-07-26T23:11:25.433Z,16.95
2022-07-26T23:13:59.194Z,16.96
2022-07-26T23:16:28.441Z,16.86
2022-07-26T23:18:59.549Z,16.88
2022-07-26T23:21:29.973Z,16.80
2022-07-26T23:24:00.403Z,16.85
2022-07-26T23:26:30.874Z,16.92
2022-07-26T23:29:01.260Z,16.86
2022-07-26T23:31:31.778Z,16.75
2022-07-26T23:34:02.358Z,16.77
2022-07-26T23:36:32.988Z,16.81
2022-07-26T23:39:04.290Z,16.74
2022-07-26T23:41:36.015Z,16.72
2022-07-26T23:44:06.546Z,16.72
2022-07-26T23:46:37.089Z,16.69
2022-07-26T23:49:07.798Z,16.66
2022-07-26T23:51:38.847Z,16.62
2022-07-26T23:54:09.282Z,16.80
2022-07-26T23:56:39.659Z,16.72
2022-07-26T23:59:10.350Z,16.58
